createdAt,value
2022-11-04T00:00:44.320Z,3.40
2022-11-04T00:01:47.849Z,4.05
2022-11-04T00:02:49.629Z,3.50
2022-11-04T00:03:52.403Z,3.65
2022-11-04T00:04:53.990Z,3.80
2022-11-04T00:05:55.580Z,3.72
2022-11-04T00:06:57.759Z,4.10
2022-11-04T00:08:17.628Z,3.42
2022-11-04T00:09:22.124Z,4.63
2022-11-04T00:10:43.714Z,4.00
2022-11-04T00:12:03.926Z,4.00
2022-11-04T00:13:05.770Z,3.53
2022-11-04T00:14:09.610Z,4.28
2022-11-04T00:15:30.272Z,3.58
2022-11-04T00:16:50.411Z,4.05
2022-11-04T00:17:52.008Z,3.47
2022-11-04T00:18:53.702Z,3.85
2022-11-04T00:20:14.043Z,3.85
2022-11-04T00:21:34.377Z,3.53
2022-11-04T00:22:55.465Z,3.13
2022-11-04T00:24:16.606Z,3.38
2022-11-04T00:25:37.271Z,3.85
2022-11-04T00:26:57.718Z,3.33
2022-11-04T00:28:40.647Z,3.35
2022-11-04T00:29:42.225Z,3.67
2022-11-04T00:30:43.793Z,4.18
2022-11-04T00:32:03.887Z,3.22
2022-11-04T00:33:24.039Z,3.30
2022-11-04T00:34:25.600Z,3.45
2022-11-04T00:35:27.446Z,3.60
2022-11-04T00:36:29.065Z,3.60
2022-11-04T00:37:30.979Z,3.15
2022-11-04T00:38:32.607Z,3.65
2022-11-04T00:39:34.270Z,3.30
2022-11-04T00:40:35.881Z,3.45
2022-11-04T00:41:37.469Z,3.33
2022-11-04T00:42:39.506Z,3.88
2022-11-04T00:43:41.201Z,2.90
2022-11-04T00:44:42.808Z,3.47
2022-11-04T00:45:44.696Z,3.47
2022-11-04T00:46:46.359Z,3.50
2022-11-04T00:47:47.964Z,3.80
2022-11-04T00:48:49.785Z,3.33
2022-11-04T00:49:51.445Z,3.33
2022-11-04T00:50:53.045Z,3.75
2022-11-04T00:51:54.722Z,3.28
2022-11-04T00:53:03.781Z,3.88
2022-11-04T00:54:06.078Z,3.83
2022-11-04T00:55:08.091Z,3.85
2022-11-04T00:56:09.796Z,3.42
2022-11-04T00:57:12.979Z,3.35
2022-11-04T00:58:14.601Z,3.45
2022-11-04T00:59:16.716Z,2.95
2022-11-04T01:00:19.967Z,3.53
2022-11-04T01:01:21.668Z,3.42
2022-11-04T01:02:23.741Z,3.45
2022-11-04T01:03:25.462Z,3.17
2022-11-04T01:04:27.092Z,3.80
2022-11-04T01:05:28.709Z,3.80
2022-11-04T01:06:30.412Z,3.72
2022-11-04T01:07:32.041Z,3.80
2022-11-04T01:08:34.562Z,3.60
2022-11-04T01:09:36.239Z,4.07
2022-11-04T01:10:44.561Z,3.38
2022-11-04T01:11:46.226Z,3.10
2022-11-04T01:12:47.861Z,3.30
2022-11-04T01:13:52.680Z,3.67
2022-11-04T01:14:54.265Z,3.38
2022-11-04T01:15:59.044Z,4.00
2022-11-04T01:17:00.666Z,3.72
2022-11-04T01:18:02.304Z,3.78
2022-11-04T01:19:04.521Z,3.88
2022-11-04T01:20:06.576Z,3.80
2022-11-04T01:21:10.713Z,4.03
2022-11-04T01:22:12.321Z,4.20
2022-11-04T01:23:13.970Z,3.70
2022-11-04T01:24:15.583Z,3.90
2022-11-04T01:25:17.172Z,3.90
2022-11-04T01:26:21.443Z,3.75
2022-11-04T01:27:23.097Z,4.22
2022-11-04T01:28:24.752Z,4.00
2022-11-04T01:29:26.388Z,3.90
2022-11-04T01:30:27.996Z,3.75
2022-11-04T01:31:31.588Z,4.53
2022-11-04T01:32:33.200Z,3.72
2022-11-04T01:33:35.096Z,4.25
2022-11-04T01:34:42.343Z,3.47
2022-11-04T01:35:45.270Z,3.25
2022-11-04T01:36:46.898Z,3.83
2022-11-04T01:37:48.505Z,3.88
2022-11-04T01:38:50.596Z,4.50
2022-11-04T01:39:52.265Z,3.85
2022-11-04T01:40:53.914Z,3.30
2022-11-04T01:41:55.547Z,3.55
2022-11-04T01:42:57.293Z,3.80
2022-11-04T01:44:01.145Z,3.17
2022-11-04T01:45:02.991Z,3.00
2022-11-04T01:46:04.626Z,3.53
2022-11-04T01:47:06.421Z,3.58
2022-11-04T01:48:14.906Z,3.28
2022-11-04T01:49:37.974Z,2.70
2022-11-04T01:50:42.455Z,3.47
2022-11-04T01:51:46.701Z,3.38
2022-11-04T01:52:55.095Z,3.67
2022-11-04T01:53:57.039Z,3.70
2022-11-04T01:55:05.398Z,3.58
2022-11-04T01:56:14.398Z,3.67
2022-11-04T01:57:25.510Z,3.05
2022-11-04T01:58:32.095Z,2.55
2022-11-04T01:59:38.732Z,2.70
2022-11-04T02:00:42.030Z,2.95
2022-11-04T02:01:44.131Z,2.55
2022-11-04T02:03:04.135Z,2.97
2022-11-04T02:04:24.975Z,2.90
2022-11-04T02:05:29.434Z,2.80
2022-11-04T02:06:31.086Z,3.00
2022-11-04T02:07:33.671Z,2.70
2022-11-04T02:08:35.745Z,2.67
2022-11-04T02:09:39.468Z,2.40
2022-11-04T02:10:43.764Z,3.25
2022-11-04T02:12:04.251Z,3.05
2022-11-04T02:13:06.296Z,3.42
2022-11-04T02:14:08.180Z,2.75
2022-11-04T02:15:09.955Z,2.33
2022-11-04T02:16:52.829Z,2.63
2022-11-04T02:18:01.174Z,3.35
2022-11-04T02:19:25.800Z,2.90
2022-11-04T02:21:11.776Z,3.40
2022-11-04T02:22:38.742Z,2.10
2022-11-04T02:23:48.573Z,2.65
2022-11-04T02:25:14.683Z,2.65
2022-11-04T02:26:49.843Z,2.63
2022-11-04T02:28:03.812Z,2.45
2022-11-04T02:29:14.044Z,2.50
2022-11-04T02:30:19.676Z,2.38
2022-11-04T02:31:39.169Z,1.75
2022-11-04T02:32:55.560Z,2.20
2022-11-04T02:34:09.707Z,2.50
2022-11-04T02:35:55.622Z,2.35
2022-11-04T02:37:23.785Z,2.58
2022-11-04T02:38:51.159Z,2.70
2022-11-04T02:40:09.760Z,2.20
2022-11-04T02:41:37.796Z,2.47
2022-11-04T02:42:51.427Z,2.55
2022-11-04T02:44:04.760Z,2.63
2022-11-04T02:45:40.975Z,2.78
2022-11-04T02:47:02.976Z,2.20
2022-11-04T02:48:18.255Z,2.80
2022-11-04T02:49:50.174Z,2.55
2022-11-04T02:51:12.904Z,2.83
2022-11-04T02:52:29.930Z,2.08
2022-11-04T02:53:55.800Z,2.38
2022-11-04T02:55:02.935Z,2.60
2022-11-04T02:56:05.985Z,2.53
2022-11-04T02:57:11.951Z,2.42
2022-11-04T02:58:20.007Z,2.45
2022-11-04T02:59:30.030Z,2.83
2022-11-04T03:00:33.149Z,2.55
2022-11-04T03:01:39.385Z,2.53
2022-11-04T03:02:52.509Z,1.83
2022-11-04T03:04:05.971Z,2.83
2022-11-04T03:05:12.529Z,2.33
2022-11-04T03:06:17.044Z,2.60
2022-11-04T03:07:24.524Z,2.10
2022-11-04T03:08:30.510Z,2.05
2022-11-04T03:09:35.032Z,2.30
2022-11-04T03:10:40.994Z,2.70
2022-11-04T03:11:48.058Z,2.20
2022-11-04T03:12:58.556Z,2.25
2022-11-04T03:14:12.641Z,2.17
2022-11-04T03:15:26.834Z,2.03
2022-11-04T03:16:42.529Z,2.20
2022-11-04T03:17:57.283Z,2.22
2022-11-04T03:19:26.851Z,2.00
2022-11-04T03:20:31.577Z,1.83
2022-11-04T03:21:36.990Z,2.17
2022-11-04T03:22:38.952Z,2.33
2022-11-04T03:23:41.057Z,1.60
2022-11-04T03:24:45.784Z,1.60
2022-11-04T03:25:52.458Z,1.40
2022-11-04T03:27:27.020Z,1.30
2022-11-04T03:29:07.049Z,1.20
2022-11-04T03:31:33.351Z,1.35
2022-11-04T03:32:47.044Z,1.23
2022-11-04T03:33:51.484Z,1.10
2022-11-04T03:34:53.154Z,0.90
2022-11-04T03:35:55.001Z,1.10
2022-11-04T03:36:57.508Z,1.33
2022-11-04T03:37:59.540Z,1.00
2022-11-04T03:39:01.228Z,0.85
2022-11-04T03:40:04.170Z,0.90
2022-11-04T03:41:15.128Z,0.88
2022-11-04T03:42:22.286Z,0.90
2022-11-04T03:43:28.993Z,0.80
2022-11-04T03:44:30.902Z,0.90
2022-11-04T03:45:32.658Z,0.90
2022-11-04T03:46:34.675Z,1.10
2022-11-04T03:47:37.218Z,1.20
2022-11-04T03:48:39.300Z,1.10
2022-11-04T03:49:41.020Z,0.90
2022-11-04T03:50:44.931Z,1.13
2022-11-04T03:51:46.582Z,0.80
2022-11-04T03:52:48.290Z,0.80
2022-11-04T03:53:50.130Z,0.90
2022-11-04T03:54:51.758Z,0.70
2022-11-04T03:56:08.513Z,0.80
2022-11-04T03:57:15.696Z,0.82
2022-11-04T03:58:41.293Z,0.88
2022-11-04T03:59:48.684Z,0.63
2022-11-04T04:00:58.393Z,0.80
2022-11-04T04:02:23.787Z,0.70
2022-11-04T04:03:32.687Z,0.88
2022-11-04T04:04:43.963Z,0.70
2022-11-04T04:05:53.364Z,0.85
2022-11-04T04:07:01.577Z,0.80
2022-11-04T04:08:19.664Z,0.80
2022-11-04T04:09:32.188Z,0.90
2022-11-04T04:10:43.216Z,0.85
2022-11-04T04:12:07.625Z,0.88
2022-11-04T04:13:30.910Z,1.00
2022-11-04T04:14:40.921Z,0.60
2022-11-04T04:15:59.765Z,0.60
2022-11-04T04:17:06.322Z,0.75
2022-11-04T04:18:12.303Z,0.80
2022-11-04T04:19:20.596Z,0.70
2022-11-04T04:20:26.243Z,0.80
2022-11-04T04:21:37.635Z,0.80
2022-11-04T04:22:46.969Z,0.73
2022-11-04T04:24:10.088Z,0.73
2022-11-04T04:25:32.870Z,0.70
2022-11-04T04:26:55.328Z,0.60
2022-11-04T04:27:59.164Z,0.70
2022-11-04T04:29:03.495Z,0.80
2022-11-04T04:30:12.088Z,0.80
2022-11-04T04:31:36.112Z,0.80
2022-11-04T04:32:47.419Z,0.90
2022-11-04T04:33:49.101Z,0.82
2022-11-04T04:34:50.729Z,0.80
2022-11-04T04:35:57.255Z,0.75
2022-11-04T04:37:06.618Z,0.80
2022-11-04T04:38:35.712Z,0.75
2022-11-04T04:40:04.476Z,0.70
2022-11-04T04:41:47.172Z,1.23
2022-11-04T04:43:11.528Z,0.90
2022-11-04T04:44:52.741Z,0.60
2022-11-04T04:45:55.775Z,0.80
2022-11-04T04:46:59.098Z,0.80
2022-11-04T04:48:00.830Z,0.90
2022-11-04T04:49:09.755Z,0.70
2022-11-04T04:50:17.016Z,0.70
2022-11-04T04:51:18.904Z,0.70
2022-11-04T04:52:21.419Z,0.80
2022-11-04T04:53:23.730Z,0.75
2022-11-04T04:54:25.321Z,0.88
2022-11-04T04:55:27.011Z,0.70
2022-11-04T04:56:28.619Z,1.25
2022-11-04T04:57:30.289Z,0.80
2022-11-04T04:58:31.956Z,0.70
2022-11-04T04:59:33.556Z,0.90
2022-11-04T05:00:35.268Z,0.70
2022-11-04T05:01:36.913Z,0.80
2022-11-04T05:02:38.607Z,0.90
2022-11-04T05:03:44.938Z,0.80
2022-11-04T05:04:46.957Z,0.85
2022-11-04T05:05:48.579Z,0.70
2022-11-04T05:06:50.198Z,0.90
2022-11-04T05:07:51.797Z,1.00
2022-11-04T05:08:53.668Z,1.00
2022-11-04T05:09:55.355Z,0.82
2022-11-04T05:10:59.338Z,0.85
2022-11-04T05:12:00.931Z,1.17
2022-11-04T05:13:25.946Z,0.90
2022-11-04T05:14:28.517Z,0.90
2022-11-04T05:15:31.101Z,0.85
2022-11-04T05:16:36.614Z,0.88
2022-11-04T05:17:41.424Z,0.65
2022-11-04T05:18:43.086Z,0.90
2022-11-04T05:19:44.717Z,0.82
2022-11-04T05:20:46.345Z,1.70
2022-11-04T05:21:48.016Z,1.45
2022-11-04T05:22:49.754Z,1.17
2022-11-04T05:23:51.410Z,1.10
2022-11-04T05:24:53.043Z,0.95
2022-11-04T05:25:54.687Z,1.15
2022-11-04T05:26:56.467Z,0.80
2022-11-04T05:28:02.082Z,1.50
2022-11-04T05:29:03.746Z,0.88
2022-11-04T05:30:06.288Z,1.00
2022-11-04T05:31:07.916Z,1.20
2022-11-04T05:32:09.502Z,1.15
2022-11-04T05:33:11.513Z,1.13
2022-11-04T05:34:14.106Z,1.20
2022-11-04T05:35:15.715Z,1.95
2022-11-04T05:36:17.741Z,1.10
2022-11-04T05:37:19.386Z,1.20
2022-11-04T05:38:20.967Z,1.15
2022-11-04T05:39:22.725Z,1.30
2022-11-04T05:40:24.781Z,1.10
2022-11-04T05:41:26.701Z,1.20
2022-11-04T05:42:29.529Z,1.10
2022-11-04T05:43:31.452Z,1.33
2022-11-04T05:44:33.047Z,1.00
2022-11-04T05:45:34.646Z,0.90
2022-11-04T05:46:36.525Z,1.00
2022-11-04T05:47:38.141Z,1.25
2022-11-04T05:48:40.643Z,1.10
2022-11-04T05:49:42.507Z,0.90
2022-11-04T05:50:44.213Z,1.13
2022-11-04T05:51:45.926Z,1.77
2022-11-04T05:52:47.586Z,2.80
2022-11-04T05:53:49.289Z,2.35
2022-11-04T05:54:50.913Z,2.10
2022-11-04T05:55:52.514Z,1.73
2022-11-04T05:56:54.199Z,2.75
2022-11-04T05:57:57.777Z,1.10
2022-11-04T05:58:59.563Z,1.27
2022-11-04T06:00:01.156Z,1.20
2022-11-04T06:01:27.661Z,1.40
2022-11-04T06:02:29.468Z,1.10
2022-11-04T06:03:31.157Z,1.50
2022-11-04T06:04:32.896Z,1.15
2022-11-04T06:05:34.469Z,1.20
2022-11-04T06:06:36.791Z,1.13
2022-11-04T06:07:38.388Z,1.10
2022-11-04T06:08:44.919Z,0.90
2022-11-04T06:09:46.819Z,1.10
2022-11-04T06:10:48.387Z,1.17
2022-11-04T06:11:49.978Z,1.08
2022-11-04T06:12:51.572Z,1.10
2022-11-04T06:13:54.897Z,0.98
2022-11-04T06:14:56.460Z,1.15
2022-11-04T06:15:58.064Z,1.00
2022-11-04T06:17:00.802Z,1.50
2022-11-04T06:18:02.434Z,1.27
2022-11-04T06:19:08.589Z,1.35
2022-11-04T06:20:12.505Z,1.40
2022-11-04T06:21:14.040Z,1.52
2022-11-04T06:22:18.960Z,1.20
2022-11-04T06:23:20.541Z,1.70
2022-11-04T06:24:22.256Z,1.65
2022-11-04T06:25:23.816Z,1.90
2022-11-04T06:26:28.208Z,1.52
2022-11-04T06:27:30.224Z,1.40
2022-11-04T06:28:32.344Z,1.83
2022-11-04T06:29:34.315Z,1.70
2022-11-04T06:30:35.884Z,1.30
2022-11-04T06:31:37.655Z,1.30
2022-11-04T06:32:39.250Z,1.58
2022-11-04T06:33:41.002Z,1.20
2022-11-04T06:34:43.030Z,1.42
2022-11-04T06:35:44.612Z,1.40
2022-11-04T06:36:46.251Z,1.10
2022-11-04T06:37:48.299Z,1.00
2022-11-04T06:38:50.020Z,1.15
2022-11-04T06:39:51.612Z,1.30
2022-11-04T06:40:53.232Z,1.50
2022-11-04T06:41:57.919Z,1.30
2022-11-04T06:43:01.385Z,1.40
2022-11-04T06:44:03.039Z,1.58
2022-11-04T06:45:05.147Z,1.50
2022-11-04T06:46:23.235Z,1.48
2022-11-04T06:47:25.229Z,1.50
2022-11-04T06:48:28.097Z,1.63
2022-11-04T06:49:29.687Z,1.70
2022-11-04T06:50:31.595Z,3.30
2022-11-04T06:51:33.711Z,3.30
2022-11-04T06:52:41.038Z,2.80
2022-11-04T06:53:43.819Z,2.17
2022-11-04T06:54:47.414Z,1.67
2022-11-04T06:55:49.045Z,1.60
2022-11-04T06:56:50.663Z,1.33
2022-11-04T06:57:52.297Z,1.20
2022-11-04T06:58:54.942Z,1.40
2022-11-04T06:59:56.708Z,1.55
2022-11-04T07:00:58.403Z,1.80
2022-11-04T07:02:00.127Z,1.40
2022-11-04T07:03:01.912Z,1.80
2022-11-04T07:04:05.381Z,1.35
2022-11-04T07:05:07.303Z,1.08
2022-11-04T07:06:10.079Z,1.52
2022-11-04T07:07:12.595Z,1.33
2022-11-04T07:08:14.217Z,1.27
2022-11-04T07:09:16.423Z,1.20
2022-11-04T07:10:18.190Z,1.20
2022-11-04T07:11:21.990Z,1.30
2022-11-04T07:12:24.647Z,1.38
2022-11-04T07:13:26.225Z,1.48
2022-11-04T07:14:27.944Z,1.23
2022-11-04T07:15:29.516Z,1.30
2022-11-04T07:16:31.342Z,1.35
2022-11-04T07:17:33.093Z,1.30
2022-11-04T07:18:35.016Z,1.40
2022-11-04T07:19:36.605Z,1.75
2022-11-04T07:20:38.317Z,2.05
2022-11-04T07:21:39.919Z,2.28
2022-11-04T07:22:41.508Z,1.80
2022-11-04T07:23:43.317Z,2.40
2022-11-04T07:24:44.909Z,1.90
2022-11-04T07:25:46.601Z,1.80
2022-11-04T07:26:48.281Z,2.50
2022-11-04T07:27:49.899Z,2.00
2022-11-04T07:28:51.686Z,2.50
2022-11-04T07:29:53.278Z,2.20
2022-11-04T07:30:59.296Z,1.92
2022-11-04T07:32:01.135Z,1.40
2022-11-04T07:33:02.746Z,1.33
2022-11-04T07:34:04.443Z,1.20
2022-11-04T07:35:06.537Z,1.60
2022-11-04T07:36:12.787Z,1.42
2022-11-04T07:37:14.492Z,1.45
2022-11-04T07:38:16.301Z,1.10
2022-11-04T07:39:17.880Z,1.58
2022-11-04T07:40:19.472Z,1.13
2022-11-04T07:41:21.402Z,1.70
2022-11-04T07:42:23.025Z,1.42
2022-11-04T07:43:24.591Z,1.02
2022-11-04T07:44:26.304Z,1.00
2022-11-04T07:45:27.911Z,1.45
2022-11-04T07:46:29.476Z,1.10
2022-11-04T07:47:31.479Z,1.00
2022-11-04T07:48:33.491Z,1.15
2022-11-04T07:49:35.147Z,1.42
2022-11-04T07:50:39.575Z,0.80
2022-11-04T07:51:41.309Z,1.10
2022-11-04T07:52:42.953Z,1.33
2022-11-04T07:53:44.878Z,1.10
2022-11-04T07:54:46.528Z,1.08
2022-11-04T07:55:50.884Z,1.10
2022-11-04T07:56:52.459Z,1.17
2022-11-04T07:57:55.154Z,0.98
2022-11-04T07:58:56.816Z,1.20
2022-11-04T07:59:58.354Z,1.00
2022-11-04T08:01:06.095Z,1.30
2022-11-04T08:02:11.232Z,1.20
2022-11-04T08:03:13.495Z,1.15
2022-11-04T08:04:15.378Z,1.75
2022-11-04T08:05:17.097Z,2.42
2022-11-04T08:06:20.459Z,1.67
2022-11-04T08:07:22.027Z,2.15
2022-11-04T08:08:23.905Z,1.73
2022-11-04T08:09:25.730Z,2.00
2022-11-04T08:10:28.128Z,2.10
2022-11-04T08:11:29.761Z,1.48
2022-11-04T08:12:32.308Z,1.60
2022-11-04T08:13:36.720Z,2.00
2022-11-04T08:14:38.333Z,1.67
2022-11-04T08:15:39.877Z,1.73
2022-11-04T08:16:41.504Z,2.25
2022-11-04T08:17:43.106Z,2.00
2022-11-04T08:18:45.579Z,1.85
2022-11-04T08:19:47.192Z,1.20
2022-11-04T08:20:50.095Z,1.00
2022-11-04T08:21:51.681Z,2.13
2022-11-04T08:22:53.371Z,1.90
2022-11-04T08:23:55.359Z,2.80
2022-11-04T08:24:56.915Z,1.10
2022-11-04T08:25:59.752Z,1.30
2022-11-04T08:27:02.060Z,1.23
2022-11-04T08:28:03.773Z,1.08
2022-11-04T08:29:08.828Z,1.13
2022-11-04T08:30:11.016Z,0.90
2022-11-04T08:31:25.197Z,1.60
2022-11-04T08:32:26.764Z,1.10
2022-11-04T08:33:29.980Z,0.90
2022-11-04T08:34:31.608Z,1.08
2022-11-04T08:35:39.847Z,0.90
2022-11-04T08:36:42.722Z,1.30
2022-11-04T08:37:44.289Z,0.82
2022-11-04T08:38:45.911Z,2.65
2022-11-04T08:39:47.509Z,1.13
2022-11-04T08:40:49.126Z,1.02
2022-11-04T08:41:52.240Z,1.20
2022-11-04T08:42:54.892Z,0.90
2022-11-04T08:44:00.689Z,0.90
2022-11-04T08:45:02.312Z,1.35
2022-11-04T08:46:06.474Z,1.10
2022-11-04T08:47:08.469Z,1.70
2022-11-04T08:48:10.292Z,1.08
2022-11-04T08:49:16.273Z,0.80
2022-11-04T08:50:27.625Z,1.08
2022-11-04T08:51:31.224Z,0.95
2022-11-04T08:52:33.155Z,1.10
2022-11-04T08:53:34.804Z,0.95
2022-11-04T08:54:36.482Z,0.95
2022-11-04T08:55:38.483Z,1.08
2022-11-04T08:56:40.495Z,1.20
2022-11-04T08:57:42.136Z,1.25
2022-11-04T08:58:44.011Z,0.95
2022-11-04T08:59:45.585Z,1.17
2022-11-04T09:00:47.626Z,1.15
2022-11-04T09:01:49.242Z,1.15
2022-11-04T09:02:51.012Z,1.83
2022-11-04T09:03:52.902Z,1.00
2022-11-04T09:04:54.536Z,1.15
2022-11-04T09:05:58.090Z,1.00
2022-11-04T09:07:07.909Z,1.17
2022-11-04T09:08:10.366Z,1.45
2022-11-04T09:09:14.647Z,1.23
2022-11-04T09:10:17.204Z,1.00
2022-11-04T09:11:19.223Z,1.27
2022-11-04T09:12:21.485Z,1.08
2022-11-04T09:13:23.214Z,1.42
2022-11-04T09:14:24.805Z,1.40
2022-11-04T09:15:27.049Z,1.00
2022-11-04T09:16:30.356Z,1.40
2022-11-04T09:17:31.979Z,1.30
2022-11-04T09:18:33.547Z,1.20
2022-11-04T09:19:35.193Z,0.93
2022-11-04T09:20:39.824Z,0.98
2022-11-04T09:21:41.687Z,1.15
2022-11-04T09:22:45.903Z,1.50
2022-11-04T09:23:47.779Z,1.00
2022-11-04T09:24:49.445Z,1.10
2022-11-04T09:25:51.047Z,1.55
2022-11-04T09:26:52.700Z,1.20
2022-11-04T09:27:54.356Z,1.10
2022-11-04T09:28:58.112Z,1.17
2022-11-04T09:29:59.824Z,1.08
2022-11-04T09:31:06.398Z,0.93
2022-11-04T09:32:09.072Z,1.20
2022-11-04T09:33:11.271Z,0.80
2022-11-04T09:34:12.891Z,1.25
2022-11-04T09:35:16.396Z,1.00
2022-11-04T09:36:18.146Z,0.90
2022-11-04T09:37:19.949Z,0.90
2022-11-04T09:38:21.525Z,1.10
2022-11-04T09:39:24.791Z,1.20
2022-11-04T09:40:26.901Z,0.90
2022-11-04T09:41:38.703Z,1.17
2022-11-04T09:43:18.576Z,1.27
2022-11-04T09:44:28.273Z,2.17
2022-11-04T09:45:32.050Z,1.05
2022-11-04T09:46:34.823Z,1.33
2022-11-04T09:47:38.898Z,1.02
2022-11-04T09:48:53.731Z,0.93
2022-11-04T09:49:58.905Z,1.13
2022-11-04T09:51:04.055Z,1.08
2022-11-04T09:52:23.456Z,1.48
2022-11-04T09:53:47.640Z,1.20
2022-11-04T09:55:00.131Z,1.65
2022-11-04T09:56:10.253Z,0.90
2022-11-04T09:57:18.292Z,1.45
2022-11-04T09:58:20.105Z,1.20
2022-11-04T09:59:27.851Z,1.20
2022-11-04T10:00:32.771Z,1.15
2022-11-04T10:01:43.214Z,1.23
2022-11-04T10:03:22.580Z,1.42
2022-11-04T10:04:35.170Z,1.23
2022-11-04T10:06:19.954Z,1.20
2022-11-04T10:07:53.013Z,1.17
2022-11-04T10:09:13.918Z,1.42
2022-11-04T10:10:24.162Z,1.00
2022-11-04T10:11:53.734Z,1.67
2022-11-04T10:13:20.075Z,1.13
2022-11-04T10:14:58.652Z,1.30
2022-11-04T10:16:17.329Z,1.05
2022-11-04T10:17:48.358Z,1.30
2022-11-04T10:18:57.941Z,1.50
2022-11-04T10:20:29.527Z,1.20
2022-11-04T10:21:46.551Z,1.48
2022-11-04T10:23:02.216Z,1.27
2022-11-04T10:24:20.385Z,1.52
2022-11-04T10:25:25.671Z,1.10
2022-11-04T10:26:32.495Z,1.40
2022-11-04T10:27:38.469Z,0.90
2022-11-04T10:28:43.423Z,1.40
2022-11-04T10:29:49.968Z,1.13
2022-11-04T10:30:52.241Z,1.10
2022-11-04T10:31:56.989Z,1.20
2022-11-04T10:33:17.664Z,0.85
2022-11-04T10:34:45.520Z,1.25
2022-11-04T10:35:53.363Z,0.93
2022-11-04T10:36:56.784Z,1.00
2022-11-04T10:38:08.834Z,1.40
2022-11-04T10:39:27.874Z,1.27
2022-11-04T10:40:37.653Z,1.00
2022-11-04T10:41:40.961Z,1.25
2022-11-04T10:42:42.739Z,0.88
2022-11-04T10:43:44.608Z,2.00
2022-11-04T10:44:47.782Z,1.00
2022-11-04T10:46:06.393Z,0.98
2022-11-04T10:47:17.844Z,1.58
2022-11-04T10:48:29.528Z,1.23
2022-11-04T10:49:42.099Z,1.10
2022-11-04T10:50:59.462Z,1.10
2022-11-04T10:52:01.220Z,1.35
2022-11-04T10:53:13.615Z,1.75
2022-11-04T10:54:15.265Z,1.80
2022-11-04T10:55:38.527Z,2.58
2022-11-04T10:56:50.808Z,2.33
2022-11-04T10:57:57.311Z,1.00
2022-11-04T10:59:07.047Z,1.20
2022-11-04T11:00:09.272Z,1.00
2022-11-04T11:01:47.956Z,1.10
2022-11-04T11:02:49.620Z,1.00
2022-11-04T11:03:51.408Z,1.05
2022-11-04T11:05:13.680Z,1.13
2022-11-04T11:06:25.228Z,0.95
2022-11-04T11:07:36.748Z,1.00
2022-11-04T11:08:39.012Z,1.10
2022-11-04T11:09:49.738Z,1.20
2022-11-04T11:10:56.486Z,0.80
2022-11-04T11:12:09.822Z,1.38
2022-11-04T11:13:40.050Z,1.60
2022-11-04T11:14:42.448Z,1.00
2022-11-04T11:15:44.507Z,1.10
2022-11-04T11:16:46.269Z,1.48
2022-11-04T11:17:48.067Z,1.25
2022-11-04T11:19:21.244Z,1.00
2022-11-04T11:20:24.846Z,2.58
2022-11-04T11:21:28.251Z,1.50
2022-11-04T11:22:40.670Z,1.30
2022-11-04T11:23:47.544Z,1.33
2022-11-04T11:24:49.191Z,1.50
2022-11-04T11:25:51.168Z,1.20
2022-11-04T11:26:58.516Z,1.00
2022-11-04T11:28:07.183Z,1.20
2022-11-04T11:29:11.852Z,1.10
2022-11-04T11:30:21.274Z,1.00
2022-11-04T11:31:26.378Z,1.20
2022-11-04T11:32:35.887Z,1.15
2022-11-04T11:33:48.054Z,1.25
2022-11-04T11:34:49.666Z,1.20
2022-11-04T11:35:59.993Z,1.10
2022-11-04T11:37:05.047Z,1.50
2022-11-04T11:38:14.368Z,1.23
2022-11-04T11:39:27.937Z,1.77
2022-11-04T11:40:35.653Z,1.35
2022-11-04T11:41:53.147Z,1.52
2022-11-04T11:42:56.341Z,1.33
2022-11-04T11:44:22.812Z,1.35
2022-11-04T11:45:25.400Z,1.33
2022-11-04T11:46:30.844Z,1.27
2022-11-04T11:48:42.788Z,1.40
2022-11-04T11:49:44.818Z,1.30
2022-11-04T11:51:00.199Z,1.42
2022-11-04T11:52:38.306Z,1.00
2022-11-04T11:53:57.478Z,1.10
2022-11-04T11:55:32.678Z,1.50
2022-11-04T11:57:07.338Z,1.45
2022-11-04T12:01:42.597Z,1.38
2022-11-04T12:03:13.500Z,1.50
2022-11-04T12:10:50.392Z,1.17
2022-11-04T12:12:01.580Z,1.33
2022-11-04T12:13:24.052Z,1.77
2022-11-04T12:14:36.749Z,2.00
2022-11-04T12:15:45.325Z,1.27
2022-11-04T12:16:52.338Z,1.53
2022-11-04T12:18:21.555Z,1.50
2022-11-04T12:19:34.120Z,1.50
2022-11-04T12:20:41.991Z,1.60
2022-11-04T12:22:00.404Z,1.10
2022-11-04T12:23:14.150Z,1.60
2022-11-04T12:24:41.077Z,1.10
2022-11-04T12:26:00.979Z,1.30
2022-11-04T12:27:13.642Z,1.40
2022-11-04T12:28:18.695Z,1.53
2022-11-04T12:29:41.958Z,1.40
2022-11-04T12:31:13.431Z,1.60
2022-11-04T12:32:40.425Z,0.93
2022-11-04T12:34:19.050Z,1.27
2022-11-04T12:35:40.362Z,1.70
2022-11-04T12:36:54.176Z,1.30
2022-11-04T12:38:17.414Z,1.13
2022-11-04T12:39:25.198Z,1.30
2022-11-04T12:40:34.251Z,1.60
2022-11-04T12:41:59.242Z,1.70
2022-11-04T12:43:19.229Z,2.10
2022-11-04T12:44:44.452Z,1.53
2022-11-04T12:46:01.084Z,1.43
2022-11-04T12:47:29.162Z,1.60
2022-11-04T12:48:45.175Z,1.40
2022-11-04T12:50:20.308Z,1.53
2022-11-04T12:51:53.981Z,1.53
2022-11-04T12:53:26.489Z,1.20
2022-11-04T12:54:57.238Z,1.20
2022-11-04T12:56:37.453Z,1.73
2022-11-04T12:57:58.497Z,1.07
2022-11-04T12:59:27.915Z,1.73
2022-11-04T13:00:31.131Z,1.93
2022-11-04T13:01:48.303Z,1.73
2022-11-04T13:03:04.323Z,1.00
2022-11-04T13:04:23.750Z,1.70
2022-11-04T13:05:58.160Z,1.30
2022-11-04T13:07:04.747Z,1.37
2022-11-04T13:08:30.494Z,1.60
2022-11-04T13:09:58.263Z,1.60
2022-11-04T13:11:25.798Z,1.40
2022-11-04T13:12:32.973Z,1.30
2022-11-04T13:13:37.704Z,1.20
2022-11-04T13:14:47.590Z,1.77
2022-11-04T13:15:53.835Z,1.47
2022-11-04T13:17:18.710Z,1.53
2022-11-04T13:18:23.537Z,1.20
2022-11-04T13:19:37.413Z,1.37
2022-11-04T13:20:49.746Z,1.77
2022-11-04T13:21:53.219Z,1.40
2022-11-04T13:23:03.297Z,1.40
2022-11-04T13:24:16.865Z,1.50
2022-11-04T13:25:29.037Z,1.33
2022-11-04T13:26:31.854Z,1.17
2022-11-04T13:27:45.114Z,1.33
2022-11-04T13:29:16.061Z,1.40
2022-11-04T13:30:35.697Z,1.10
2022-11-04T13:31:43.815Z,1.00
2022-11-04T13:33:30.191Z,1.30
2022-11-04T13:34:43.291Z,1.10
2022-11-04T13:35:56.022Z,1.63
2022-11-04T13:37:17.744Z,1.30
2022-11-04T13:38:25.633Z,1.47
2022-11-04T13:39:51.020Z,1.17
2022-11-04T13:41:21.728Z,1.17
2022-11-04T13:42:50.022Z,1.47
2022-11-04T13:44:01.320Z,1.17
2022-11-04T13:45:14.057Z,1.17
2022-11-04T13:46:18.766Z,1.37
2022-11-04T13:47:31.968Z,1.50
2022-11-04T13:48:37.934Z,1.47
2022-11-04T13:49:39.578Z,1.93
2022-11-04T13:50:41.722Z,1.57
2022-11-04T13:51:46.091Z,1.40
2022-11-04T13:52:52.592Z,1.10
2022-11-04T13:53:58.285Z,1.30
2022-11-04T13:55:17.104Z,1.30
2022-11-04T13:56:38.407Z,1.30
2022-11-04T13:58:01.359Z,1.40
2022-11-04T13:59:30.271Z,1.33
2022-11-04T14:00:33.652Z,1.67
2022-11-04T14:01:36.123Z,1.30
2022-11-04T14:02:42.189Z,1.53
2022-11-04T14:04:10.277Z,1.53
2022-11-04T14:05:24.123Z,1.10
2022-11-04T14:06:59.603Z,1.20
2022-11-04T14:08:01.210Z,1.70
2022-11-04T14:09:40.451Z,1.47
2022-11-04T14:10:51.215Z,1.53
2022-11-04T14:12:11.058Z,1.43
2022-11-04T14:13:27.750Z,1.30
2022-11-04T14:14:29.368Z,1.73
2022-11-04T14:16:09.519Z,1.13
2022-11-04T14:17:32.547Z,1.27
2022-11-04T14:18:37.063Z,1.40
2022-11-04T14:19:57.324Z,1.40
2022-11-04T14:21:18.125Z,1.33
2022-11-04T14:22:19.942Z,1.40
2022-11-04T14:23:24.365Z,1.97
2022-11-04T14:24:28.665Z,1.67
2022-11-04T14:25:41.919Z,1.33
2022-11-04T14:26:48.776Z,1.77
2022-11-04T14:27:53.696Z,1.50
2022-11-04T14:29:25.518Z,1.60
2022-11-04T14:30:51.699Z,1.63
2022-11-04T14:31:56.876Z,1.40
2022-11-04T14:33:03.066Z,2.13
2022-11-04T14:34:06.034Z,2.30
2022-11-04T14:35:16.906Z,1.90
2022-11-04T14:36:21.305Z,1.57
2022-11-04T14:37:28.904Z,1.60
2022-11-04T14:38:33.767Z,1.70
2022-11-04T14:39:40.587Z,1.53
2022-11-04T14:41:09.144Z,1.90
2022-11-04T14:42:14.718Z,1.93
2022-11-04T14:43:32.672Z,1.90
2022-11-04T14:44:49.835Z,1.60
2022-11-04T14:45:52.153Z,1.80
2022-11-04T14:46:59.489Z,1.97
2022-11-04T14:48:16.164Z,1.60
2022-11-04T14:49:43.563Z,1.40
2022-11-04T14:50:49.686Z,1.80
2022-11-04T14:51:51.308Z,1.53
2022-11-04T14:52:57.520Z,1.40
2022-11-04T14:54:25.593Z,1.60
2022-11-04T14:55:30.709Z,1.97
2022-11-04T14:56:32.698Z,2.03
2022-11-04T14:57:43.405Z,1.60
2022-11-04T14:59:03.309Z,1.83
2022-11-04T15:00:35.853Z,1.77
2022-11-04T15:01:39.843Z,1.70
2022-11-04T15:02:42.812Z,1.70
2022-11-04T15:04:10.600Z,2.20
2022-11-04T15:05:26.816Z,1.60
2022-11-04T15:06:53.620Z,1.60
2022-11-04T15:07:51.782Z,1.60
2022-11-04T15:08:53.416Z,1.50
2022-11-04T15:09:55.075Z,2.30
2022-11-04T15:11:03.950Z,1.73
2022-11-04T15:12:32.775Z,2.75
2022-11-04T15:13:47.529Z,3.40
2022-11-04T15:14:49.144Z,3.47
2022-11-04T15:15:53.275Z,2.20
2022-11-04T15:16:57.807Z,2.70
2022-11-04T15:18:07.482Z,5.30
2022-11-04T15:19:10.231Z,5.70
2022-11-04T15:20:24.529Z,4.77
2022-11-04T15:21:26.590Z,4.40
2022-11-04T15:22:30.388Z,3.70
2022-11-04T15:23:36.527Z,2.95
2022-11-04T15:24:38.200Z,3.75
2022-11-04T15:25:50.191Z,3.20